createdAt,value
2018-09-25T00:00:17.763Z,74.53
2018-09-25T00:02:51.617Z,73.84
2018-09-25T00:05:25.306Z,73.93
2018-09-25T00:07:59.078Z,74.21
2018-09-25T00:10:32.765Z,73.82
2018-09-25T00:13:06.590Z,73.82
2018-09-25T00:15:40.427Z,73.85
2018-09-25T00:18:14.345Z,74.70
2018-09-25T00:20:47.939Z,74.25
2018-09-25T00:23:21.850Z,74.17
2018-09-25T00:25:55.587Z,74.06
2018-09-25T00:28:29.470Z,74.19
2018-09-25T00:31:03.409Z,74.38
2018-09-25T00:33:37.211Z,74.51
2018-09-25T00:36:11.135Z,74.37
2018-09-25T00:38:45.074Z,74.42
2018-09-25T00:41:19.033Z,74.62
2018-09-25T00:43:52.726Z,74.44
2018-09-25T00:46:26.478Z,74.15
2018-09-25T00:49:00.276Z,74.31
2018-09-25T00:51:34.020Z,74.49
2018-09-25T00:54:07.691Z,74.32
2018-09-25T00:56:41.355Z,74.48
2018-09-25T00:59:15.356Z,73.85
2018-09-25T01:01:48.995Z,74.06
2018-09-25T01:04:22.923Z,74.43
2018-09-25T01:06:56.652Z,73.95
2018-09-25T01:09:30.173Z,74.20
2018-09-25T01:12:03.938Z,73.93
2018-09-25T01:14:37.781Z,74.14
2018-09-25T01:17:11.589Z,74.33
2018-09-25T01:19:45.277Z,74.69
2018-09-25T01:22:19.094Z,74.47
2018-09-25T01:24:52.759Z,74.38
2018-09-25T01:27:26.508Z,74.10
2018-09-25T01:30:00.362Z,74.57
2018-09-25T01:32:34.195Z,74.69
2018-09-25T01:35:07.852Z,74.78
2018-09-25T01:37:41.599Z,74.18
2018-09-25T01:40:15.473Z,74.27
2018-09-25T01:42:50.227Z,74.78
2018-09-25T01:45:23.871Z,74.38
2018-09-25T01:47:57.723Z,74.34
2018-09-25T01:50:31.563Z,74.36
2018-09-25T01:53:05.407Z,74.83
2018-09-25T01:55:39.123Z,74.67
2018-09-25T01:58:12.836Z,74.33
2018-09-25T02:00:46.715Z,74.35
2018-09-25T02:03:20.338Z,75.02
2018-09-25T02:05:54.132Z,74.10
2018-09-25T02:08:27.823Z,74.46
2018-09-25T02:11:01.655Z,74.78
2018-09-25T02:13:35.507Z,74.55
2018-09-25T02:16:09.377Z,75.07
2018-09-25T02:18:43.208Z,74.45
2018-09-25T02:21:16.865Z,74.94
2018-09-25T02:23:50.596Z,74.94
2018-09-25T02:26:24.265Z,74.80
2018-09-25T02:28:57.915Z,74.45
2018-09-25T02:31:31.487Z,74.89
2018-09-25T02:34:05.358Z,74.48
2018-09-25T02:36:38.967Z,74.33
2018-09-25T02:39:15.064Z,74.93
2018-09-25T02:41:49.243Z,75.05
2018-09-25T02:44:23.012Z,74.33
2018-09-25T02:46:56.692Z,75.15
2018-09-25T02:49:30.511Z,74.58
2018-09-25T02:52:04.225Z,75.22
2018-09-25T02:54:37.958Z,75.26
2018-09-25T02:57:11.638Z,75.18
2018-09-25T02:59:45.466Z,74.70
2018-09-25T03:02:19.152Z,74.63
2018-09-25T03:04:52.799Z,75.17
2018-09-25T03:07:26.648Z,74.46
2018-09-25T03:10:00.530Z,74.82
2018-09-25T03:12:34.416Z,74.48
2018-09-25T03:15:08.285Z,75.09
2018-09-25T03:17:42.062Z,75.17
2018-09-25T03:20:15.690Z,75.08
2018-09-25T03:22:49.389Z,75.17
2018-09-25T03:25:23.195Z,74.92
2018-09-25T03:27:56.920Z,75.25
2018-09-25T03:30:30.636Z,74.69
2018-09-25T03:33:04.242Z,74.80
2018-09-25T03:35:37.971Z,74.88
2018-09-25T03:38:11.803Z,75.06
2018-09-25T03:40:45.381Z,74.70
2018-09-25T03:43:19.078Z,74.69
2018-09-25T03:45:52.885Z,74.97
2018-09-25T03:48:26.607Z,74.83
2018-09-25T03:51:00.313Z,75.11
2018-09-25T03:53:33.982Z,74.42
2018-09-25T03:56:07.737Z,74.90
2018-09-25T03:58:41.435Z,74.53
2018-09-25T04:01:15.359Z,74.78
2018-09-25T04:03:48.955Z,74.72
2018-09-25T04:06:22.760Z,74.58
2018-09-25T04:08:56.597Z,74.96
2018-09-25T04:11:30.374Z,74.67
2018-09-25T04:14:04.214Z,74.80
2018-09-25T04:16:37.841Z,74.52
2018-09-25T04:19:11.689Z,75.03
2018-09-25T04:21:45.451Z,74.67
2018-09-25T04:24:19.237Z,74.94
2018-09-25T04:26:52.972Z,74.95
2018-09-25T04:29:26.518Z,75.00
2018-09-25T04:32:00.379Z,75.02
2018-09-25T04:34:34.018Z,74.42
2018-09-25T04:37:07.870Z,74.90
2018-09-25T04:39:41.663Z,74.48
2018-09-25T04:42:15.572Z,75.05
2018-09-25T04:44:49.301Z,74.46
2018-09-25T04:47:23.046Z,74.55
2018-09-25T04:49:56.923Z,75.07
2018-09-25T04:52:30.788Z,74.75
2018-09-25T04:55:04.659Z,74.98
2018-09-25T04:57:38.583Z,75.01
2018-09-25T05:00:12.323Z,74.76
2018-09-25T05:02:46.077Z,74.79
2018-09-25T05:05:19.861Z,74.66
2018-09-25T05:07:53.660Z,75.27
2018-09-25T05:10:27.503Z,75.40
2018-09-25T05:13:01.254Z,74.40
2018-09-25T05:15:35.000Z,74.56
2018-09-25T05:18:08.757Z,75.16
2018-09-25T05:20:42.625Z,75.15
2018-09-25T05:23:16.271Z,74.82
2018-09-25T05:25:49.937Z,74.90
2018-09-25T05:28:23.684Z,75.40
2018-09-25T05:30:57.366Z,74.71
2018-09-25T05:33:30.932Z,74.50
2018-09-25T05:36:04.635Z,74.72
2018-09-25T05:38:38.429Z,75.13
2018-09-25T05:41:12.142Z,74.76
2018-09-25T05:43:45.862Z,75.21
2018-09-25T05:46:19.555Z,75.15
2018-09-25T05:48:53.555Z,74.63
2018-09-25T05:51:27.177Z,75.28
2018-09-25T05:54:01.040Z,74.83
2018-09-25T05:56:34.774Z,74.86
2018-09-25T05:59:08.486Z,74.20
2018-09-25T06:01:42.320Z,74.87
2018-09-25T06:04:15.978Z,74.07
2018-09-25T06:06:49.702Z,74.59
2018-09-25T06:09:23.645Z,74.57
2018-09-25T06:11:57.239Z,74.43
2018-09-25T06:14:31.022Z,74.61
2018-09-25T06:17:04.668Z,74.33
2018-09-25T06:19:38.349Z,74.08
2018-09-25T06:22:12.016Z,74.61
2018-09-25T06:24:45.594Z,74.78
2018-09-25T06:27:19.355Z,74.41
2018-09-25T06:29:52.945Z,74.24
2018-09-25T06:32:26.510Z,74.27
2018-09-25T06:35:00.289Z,74.35
2018-09-25T06:37:34.057Z,72.92
2018-09-25T06:40:07.742Z,70.80
2018-09-25T06:42:41.259Z,69.81
2018-09-25T06:45:15.014Z,67.79
2018-09-25T06:47:48.910Z,65.68
2018-09-25T06:50:22.506Z,64.47
2018-09-25T06:52:56.249Z,62.47
2018-09-25T06:55:30.115Z,61.37
2018-09-25T06:58:03.867Z,59.61
2018-09-25T07:00:37.689Z,58.46
2018-09-25T07:03:11.391Z,57.86
2018-09-25T07:05:45.060Z,57.99
2018-09-25T07:08:18.863Z,56.80
2018-09-25T07:10:52.697Z,56.41
2018-09-25T07:13:26.256Z,55.62
2018-09-25T07:15:59.968Z,55.33
2018-09-25T07:18:33.865Z,54.68
2018-09-25T07:21:07.841Z,53.73
2018-09-25T07:23:41.654Z,54.37
2018-09-25T07:26:15.643Z,55.33
2018-09-25T07:28:49.479Z,55.33
2018-09-25T07:31:23.199Z,55.28
2018-09-25T07:33:56.866Z,55.58
2018-09-25T07:36:30.458Z,55.46
2018-09-25T07:39:04.295Z,55.86
2018-09-25T07:41:38.881Z,55.33
2018-09-25T07:44:12.732Z,55.02
2018-09-25T07:46:47.113Z,54.88
2018-09-25T07:49:20.972Z,55.78
2018-09-25T07:51:54.746Z,54.75
2018-09-25T07:54:29.303Z,53.52
2018-09-25T07:57:03.619Z,53.91
2018-09-25T07:59:38.097Z,53.90
2018-09-25T08:02:11.815Z,52.37
2018-09-25T08:04:45.519Z,53.55
2018-09-25T08:07:19.239Z,53.32
2018-09-25T08:09:53.044Z,52.10
2018-09-25T08:12:27.760Z,51.80
2018-09-25T08:15:01.666Z,53.62
2018-09-25T08:17:35.647Z,53.42
2018-09-25T08:20:09.709Z,53.89
2018-09-25T08:22:43.568Z,53.89
2018-09-25T08:25:17.647Z,54.32
2018-09-25T08:27:51.899Z,53.44
2018-09-25T08:30:25.711Z,54.31
2018-09-25T08:32:59.579Z,54.58
2018-09-25T08:35:33.331Z,54.21
2018-09-25T08:38:07.056Z,54.50
2018-09-25T08:40:41.887Z,54.72
2018-09-25T08:43:15.978Z,54.36
2018-09-25T08:45:49.795Z,54.57
2018-09-25T08:48:23.467Z,53.94
2018-09-25T08:50:57.882Z,53.53
2018-09-25T08:53:31.889Z,53.84
2018-09-25T08:56:06.285Z,54.33
2018-09-25T08:58:40.574Z,53.61
2018-09-25T09:01:14.852Z,53.62
2018-09-25T09:03:48.894Z,53.90
2018-09-25T09:06:23.119Z,52.97
2018-09-25T09:08:56.986Z,52.59
2018-09-25T09:11:30.751Z,51.81
2018-09-25T09:14:04.550Z,51.94
2018-09-25T09:23:50.729Z,50.63
2018-09-25T09:26:24.644Z,49.86
2018-09-25T09:28:58.573Z,49.05
2018-09-25T09:31:32.315Z,46.55
2018-09-25T09:34:05.950Z,44.06
2018-09-25T09:36:39.749Z,44.20
2018-09-25T09:39:14.320Z,47.12
2018-09-25T09:41:48.190Z,49.03
2018-09-25T09:44:21.698Z,49.36
2018-09-25T09:46:55.523Z,47.97
2018-09-25T09:49:29.288Z,48.93
2018-09-25T09:52:02.959Z,48.29
2018-09-25T09:54:36.603Z,48.90
2018-09-25T09:57:10.409Z,47.96
2018-09-25T09:59:44.109Z,47.02
2018-09-25T10:02:17.907Z,47.23
2018-09-25T10:04:51.802Z,46.98
2018-09-25T10:07:25.719Z,47.52
2018-09-25T10:09:59.434Z,47.12
2018-09-25T10:12:33.217Z,48.38
2018-09-25T10:15:06.705Z,48.42
2018-09-25T10:17:40.442Z,47.67
2018-09-25T10:20:14.232Z,47.71
2018-09-25T10:22:47.868Z,48.35
2018-09-25T10:25:21.571Z,47.90
2018-09-25T10:27:55.332Z,48.05
2018-09-25T10:30:29.157Z,46.55
2018-09-25T10:33:02.844Z,47.84
2018-09-25T10:35:36.768Z,48.74
2018-09-25T10:38:10.644Z,48.55
2018-09-25T10:40:44.500Z,47.80
2018-09-25T10:43:18.946Z,48.27
2018-09-25T10:45:52.892Z,48.49
2018-09-25T10:48:26.690Z,49.05
2018-09-25T10:51:00.366Z,49.79
2018-09-25T10:53:34.114Z,48.93
2018-09-25T10:56:07.828Z,48.78
2018-09-25T10:58:41.391Z,48.55
2018-09-25T11:01:15.115Z,48.75
2018-09-25T11:03:48.941Z,49.11
2018-09-25T11:06:22.566Z,48.90
2018-09-25T11:08:56.231Z,48.62
2018-09-25T11:11:29.961Z,47.95
2018-09-25T11:14:03.748Z,48.59
2018-09-25T11:16:37.659Z,48.02
2018-09-25T11:19:11.392Z,48.25
2018-09-25T11:21:44.980Z,48.58
2018-09-25T11:24:18.800Z,48.90
2018-09-25T11:26:52.472Z,48.54
2018-09-25T11:29:26.195Z,48.64
2018-09-25T11:31:59.867Z,49.22
2018-09-25T11:34:33.600Z,49.37
2018-09-25T11:37:07.330Z,49.07
2018-09-25T11:39:41.084Z,49.93
2018-09-25T11:42:15.012Z,49.97
2018-09-25T11:44:48.990Z,49.92
2018-09-25T11:47:22.744Z,49.25
2018-09-25T11:49:56.678Z,49.41
2018-09-25T11:52:30.631Z,49.38
2018-09-25T11:55:04.442Z,49.70
2018-09-25T11:57:38.237Z,49.22
2018-09-25T12:00:12.181Z,48.30
2018-09-25T12:02:45.820Z,48.99
2018-09-25T12:05:19.566Z,49.10
2018-09-25T12:07:53.387Z,49.29
2018-09-25T12:10:27.269Z,48.97
2018-09-25T12:13:01.037Z,49.67
2018-09-25T12:15:34.827Z,50.34
2018-09-25T12:18:08.387Z,50.38
2018-09-25T12:20:42.350Z,49.59
2018-09-25T12:23:16.209Z,49.83
2018-09-25T12:25:49.936Z,50.11
2018-09-25T12:28:23.739Z,50.23
2018-09-25T12:30:57.466Z,49.97
2018-09-25T12:33:31.223Z,51.30
2018-09-25T12:36:04.943Z,51.20
2018-09-25T12:38:38.638Z,50.51
2018-09-25T12:41:13.334Z,48.46
2018-09-25T12:43:47.130Z,49.51
2018-09-25T12:46:20.875Z,50.47
2018-09-25T12:48:54.528Z,50.34
2018-09-25T12:51:28.424Z,51.57
2018-09-25T12:54:02.150Z,52.02
2018-09-25T12:56:35.877Z,52.66
2018-09-25T12:59:09.696Z,52.70
2018-09-25T13:01:43.473Z,52.12
2018-09-25T13:04:17.393Z,53.62
2018-09-25T13:06:51.247Z,54.10
2018-09-25T13:09:24.895Z,53.37
2018-09-25T13:11:58.759Z,53.27
2018-09-25T13:14:32.742Z,53.03
2018-09-25T13:17:06.807Z,52.59
2018-09-25T13:19:40.531Z,52.60
2018-09-25T13:22:15.312Z,51.93
2018-09-25T13:24:49.204Z,51.77
2018-09-25T13:27:23.127Z,51.71
2018-09-25T13:29:56.925Z,51.46
2018-09-25T13:32:30.855Z,51.92
2018-09-25T13:35:04.757Z,51.99
2018-09-25T13:37:38.614Z,53.31
2018-09-25T13:40:12.854Z,54.08
2018-09-25T13:42:47.645Z,55.02
2018-09-25T13:45:21.322Z,54.98
2018-09-25T13:47:55.086Z,55.42
2018-09-25T13:50:28.775Z,55.69
2018-09-25T13:53:02.451Z,54.38
2018-09-25T13:55:36.282Z,53.37
2018-09-25T13:58:09.998Z,52.14
2018-09-25T14:00:43.898Z,51.79
2018-09-25T14:03:17.595Z,51.81
2018-09-25T14:05:51.329Z,52.90
2018-09-25T14:08:25.040Z,52.92
2018-09-25T14:10:58.722Z,53.29
2018-09-25T14:13:32.599Z,53.60
2018-09-25T14:16:06.337Z,54.07
2018-09-25T14:18:40.098Z,55.07
2018-09-25T14:21:13.935Z,54.66
2018-09-25T14:23:47.675Z,55.74
2018-09-25T14:26:21.319Z,55.44
2018-09-25T14:28:54.960Z,55.59
2018-09-25T14:31:28.751Z,55.58
2018-09-25T14:34:02.495Z,56.28
2018-09-25T14:36:36.329Z,56.82
2018-09-25T14:39:11.857Z,56.25
2018-09-25T14:41:45.586Z,56.57
2018-09-25T14:44:19.328Z,56.70
2018-09-25T14:46:53.154Z,56.79
2018-09-25T14:49:26.669Z,57.50
2018-09-25T14:52:00.536Z,57.23
2018-09-25T14:54:34.233Z,57.69
2018-09-25T14:57:07.896Z,57.30
2018-09-25T14:59:41.682Z,57.63
2018-09-25T15:02:15.435Z,57.76
2018-09-25T15:04:49.127Z,57.60
2018-09-25T15:07:23.010Z,57.62
2018-09-25T15:09:56.600Z,57.98
2018-09-25T15:12:30.323Z,56.93
2018-09-25T15:15:04.006Z,54.00
2018-09-25T15:17:37.712Z,54.64
2018-09-25T15:20:11.382Z,55.42
2018-09-25T15:22:45.171Z,54.66
2018-09-25T15:25:18.761Z,55.86
2018-09-25T15:27:52.466Z,56.08
2018-09-25T15:30:26.098Z,56.74
2018-09-25T15:32:59.983Z,56.86
2018-09-25T15:35:33.652Z,58.08
2018-09-25T15:38:07.316Z,57.33
2018-09-25T15:40:41.190Z,57.77
2018-09-25T15:43:14.864Z,57.78
2018-09-25T15:45:48.816Z,58.13
2018-09-25T15:48:22.554Z,58.43
2018-09-25T15:50:56.198Z,58.58
2018-09-25T15:53:30.010Z,58.32
2018-09-25T15:56:03.544Z,58.86
2018-09-25T15:58:37.402Z,58.84
2018-09-25T16:01:11.164Z,59.14
2018-09-25T16:03:45.051Z,59.40
2018-09-25T16:06:18.850Z,58.79
2018-09-25T16:08:52.648Z,59.51
2018-09-25T16:11:26.521Z,59.10
2018-09-25T16:14:00.459Z,59.62
2018-09-25T16:16:34.186Z,59.31
2018-09-25T16:19:08.111Z,59.76
2018-09-25T16:21:41.869Z,59.76
2018-09-25T16:24:15.446Z,59.75
2018-09-25T16:26:49.153Z,59.61
2018-09-25T16:29:23.077Z,59.77
2018-09-25T16:31:56.983Z,59.86
2018-09-25T16:34:30.818Z,59.71
2018-09-25T16:37:04.535Z,60.22
2018-09-25T16:39:38.309Z,59.97
2018-09-25T16:42:12.200Z,59.83
2018-09-25T16:44:45.892Z,60.08
2018-09-25T16:47:19.921Z,60.06
2018-09-25T16:49:53.849Z,60.63
2018-09-25T16:52:27.765Z,59.92
2018-09-25T16:55:01.488Z,60.55
2018-09-25T16:57:35.679Z,60.38
2018-09-25T17:00:09.310Z,60.08
2018-09-25T17:02:43.159Z,60.74
2018-09-25T17:05:16.899Z,60.88
2018-09-25T17:07:50.552Z,60.81
2018-09-25T17:10:24.292Z,60.13
2018-09-25T17:12:58.008Z,60.65
2018-09-25T17:15:31.704Z,61.04
2018-09-25T17:18:05.297Z,60.93
2018-09-25T17:20:39.102Z,61.50
2018-09-25T17:23:12.822Z,61.04
2018-09-25T17:25:46.433Z,61.22
2018-09-25T17:28:20.245Z,61.25
2018-09-25T17:30:54.071Z,60.69
2018-09-25T17:33:27.914Z,60.84
2018-09-25T17:36:01.813Z,61.10
2018-09-25T17:38:35.724Z,61.48
2018-09-25T17:41:09.698Z,61.53
2018-09-25T17:43:43.339Z,61.20
2018-09-25T17:46:18.112Z,61.26
2018-09-25T17:48:53.405Z,61.28
2018-09-25T17:51:27.211Z,61.56
2018-09-25T17:54:00.991Z,61.54
2018-09-25T17:56:34.913Z,61.36
2018-09-25T17:59:09.003Z,62.04
2018-09-25T18:01:42.749Z,61.97
2018-09-25T18:04:16.727Z,61.43
2018-09-25T18:06:50.559Z,61.90
2018-09-25T18:09:24.280Z,61.36
2018-09-25T18:11:58.122Z,61.51
2018-09-25T18:14:31.994Z,61.82
2018-09-25T18:17:05.879Z,62.19
2018-09-25T18:19:39.836Z,61.67
2018-09-25T18:22:13.772Z,62.12
2018-09-25T18:24:47.732Z,62.19
2018-09-25T18:27:21.657Z,62.23
2018-09-25T18:29:55.283Z,62.33
2018-09-25T18:32:29.048Z,61.29
2018-09-25T18:35:02.757Z,61.49
2018-09-25T18:37:36.620Z,61.46
2018-09-25T18:40:11.102Z,61.43
2018-09-25T18:42:45.018Z,61.60
2018-09-25T18:45:19.009Z,62.08
2018-09-25T18:47:52.923Z,62.46
2018-09-25T18:50:26.722Z,62.56
2018-09-25T18:53:00.340Z,62.68
2018-09-25T18:55:34.246Z,62.63
2018-09-25T18:58:07.988Z,62.19
2018-09-25T19:00:41.939Z,62.85
2018-09-25T19:03:15.844Z,62.72
2018-09-25T19:05:49.767Z,62.39
2018-09-25T19:08:23.455Z,63.01
2018-09-25T19:10:57.254Z,62.98
2018-09-25T19:13:31.034Z,62.43
2018-09-25T19:16:04.807Z,62.84
2018-09-25T19:18:38.615Z,62.94
2018-09-25T19:21:12.358Z,62.91
2018-09-25T19:23:46.133Z,62.35
2018-09-25T19:26:19.937Z,63.18
2018-09-25T19:28:53.750Z,62.67
2018-09-25T19:31:27.603Z,62.93
2018-09-25T19:34:01.546Z,62.84
2018-09-25T19:36:35.482Z,62.86
2018-09-25T19:39:09.551Z,63.36
2018-09-25T19:41:43.273Z,62.97
2018-09-25T19:44:17.092Z,63.29
2018-09-25T19:46:50.903Z,63.19
2018-09-25T19:49:24.770Z,63.08
2018-09-25T19:51:58.614Z,63.57
2018-09-25T19:54:32.286Z,63.72
2018-09-25T19:57:06.259Z,63.21
2018-09-25T19:59:40.115Z,63.32
2018-09-25T20:02:14.066Z,63.74
2018-09-25T20:04:47.949Z,63.57
2018-09-25T20:07:21.931Z,63.96
2018-09-25T20:09:55.761Z,63.30
2018-09-25T20:12:29.560Z,63.63
2018-09-25T20:15:03.476Z,64.21
2018-09-25T20:17:37.191Z,64.15
2018-09-25T20:20:11.726Z,64.08
2018-09-25T20:22:45.472Z,63.81
2018-09-25T20:25:19.131Z,64.27
2018-09-25T20:27:52.882Z,63.99
2018-09-25T20:30:26.476Z,64.02
2018-09-25T20:33:00.304Z,64.21
2018-09-25T20:35:34.083Z,64.50
2018-09-25T20:38:07.747Z,64.33
2018-09-25T20:40:41.542Z,63.90
2018-09-25T20:43:15.250Z,64.35
2018-09-25T20:45:49.038Z,64.26
2018-09-25T20:48:22.722Z,64.07
2018-09-25T20:50:56.487Z,63.97
2018-09-25T20:53:30.228Z,64.07
2018-09-25T20:56:04.139Z,64.02
2018-09-25T20:58:37.888Z,64.15
2018-09-25T21:01:11.745Z,64.63
2018-09-25T21:03:45.700Z,64.16
2018-09-25T21:06:20.794Z,64.57
2018-09-25T21:08:54.690Z,64.40
2018-09-25T21:11:28.662Z,64.74
2018-09-25T21:14:02.377Z,64.75
2018-09-25T21:16:36.246Z,64.79
2018-09-25T21:19:10.091Z,64.86
2018-09-25T21:21:43.933Z,64.86
2018-09-25T21:24:17.693Z,64.75
2018-09-25T21:26:51.652Z,64.37
2018-09-25T21:29:25.332Z,64.92
2018-09-25T21:31:59.165Z,64.92
2018-09-25T21:34:33.790Z,64.83
2018-09-25T21:37:07.427Z,64.66
2018-09-25T21:39:41.338Z,65.04
2018-09-25T21:42:15.152Z,65.19
2018-09-25T21:44:49.054Z,65.24
2018-09-25T21:47:22.692Z,64.50
2018-09-25T21:49:56.396Z,64.99
2018-09-25T21:52:30.065Z,64.74
2018-09-25T21:55:03.744Z,64.75
2018-09-25T21:57:37.432Z,64.67
2018-09-25T22:00:12.100Z,64.76
2018-09-25T22:02:45.862Z,64.63
2018-09-25T22:05:19.431Z,64.88
2018-09-25T22:07:53.345Z,65.14
2018-09-25T22:10:27.104Z,64.78
2018-09-25T22:13:01.098Z,64.78
2018-09-25T22:15:34.898Z,64.93
2018-09-25T22:18:08.660Z,64.77
2018-09-25T22:20:42.279Z,64.70
2018-09-25T22:23:16.095Z,64.48
2018-09-25T22:25:49.774Z,65.05
2018-09-25T22:28:23.557Z,64.52
2018-09-25T22:30:57.233Z,64.59
2018-09-25T22:33:31.127Z,64.68
2018-09-25T22:36:04.965Z,65.18
2018-09-25T22:38:38.759Z,64.42
2018-09-25T22:41:12.628Z,64.44
2018-09-25T22:43:46.385Z,64.20
2018-09-25T22:46:20.214Z,64.15
2018-09-25T22:48:53.931Z,63.99
2018-09-25T22:51:27.482Z,63.30
2018-09-25T22:54:01.381Z,63.54
2018-09-25T22:56:35.145Z,63.65
2018-09-25T22:59:09.043Z,63.16
2018-09-25T23:01:42.705Z,63.31
2018-09-25T23:04:16.440Z,63.78
2018-09-25T23:06:50.124Z,63.30
2018-09-25T23:09:23.913Z,63.60
2018-09-25T23:11:57.789Z,64.10
2018-09-25T23:14:31.768Z,63.77
2018-09-25T23:17:05.700Z,63.40
2018-09-25T23:19:39.637Z,63.71
2018-09-25T23:22:13.183Z,63.72
2018-09-25T23:24:46.859Z,63.39
2018-09-25T23:27:20.574Z,63.60
2018-09-25T23:29:54.210Z,63.96
2018-09-25T23:32:27.924Z,64.54
2018-09-25T23:35:01.723Z,64.10
2018-09-25T23:37:35.403Z,64.52
2018-09-25T23:40:38.877Z,64.69
2018-09-25T23:43:38.911Z,64.13
2018-09-25T23:47:14.560Z,64.39
2018-09-25T23:49:48.274Z,64.58
2018-09-25T23:52:21.239Z,64.54
2018-09-25T23:54:58.742Z,64.71
2018-09-25T23:57:32.537Z,64.62
